sensor_id;sensor_type;location;lat;lon;timestamp;pressure;altitude;pressure_sealevel;temperature;humidity
55460;BME280;41326;45.302;-122.946;2024-03-06T00:00:23;100978.68;;;18.08;54.68
55460;BME280;41326;45.302;-122.946;2024-03-06T00:02:53;100976.56;;;18.10;54.54
55460;BME280;41326;45.302;-122.946;2024-03-06T00:05:23;100980.62;;;18.07;54.39
55460;BME280;41326;45.302;-122.946;2024-03-06T00:07:53;100977.80;;;18.04;54.41
55460;BME280;41326;45.302;-122.946;2024-03-06T00:10:23;100977.28;;;18.02;54.61
55460;BME280;41326;45.302;-122.946;2024-03-06T00:12:54;100980.92;;;18.00;54.74
55460;BME280;41326;45.302;-122.946;2024-03-06T00:15:23;100985.65;;;17.98;54.91
55460;BME280;41326;45.302;-122.946;2024-03-06T00:17:53;100983.73;;;17.99;54.96
55460;BME280;41326;45.302;-122.946;2024-03-06T00:20:23;100985.71;;;17.94;55.27
55460;BME280;41326;45.302;-122.946;2024-03-06T00:22:54;100987.16;;;17.93;55.49
55460;BME280;41326;45.302;-122.946;2024-03-06T00:25:24;100985.74;;;17.97;54.73
55460;BME280;41326;45.302;-122.946;2024-03-06T00:27:54;100984.99;;;17.96;54.48
55460;BME280;41326;45.302;-122.946;2024-03-06T00:30:24;100981.83;;;17.96;54.53
55460;BME280;41326;45.302;-122.946;2024-03-06T00:32:54;100979.13;;;17.96;54.48
55460;BME280;41326;45.302;-122.946;2024-03-06T00:35:24;100975.55;;;17.95;54.46
55460;BME280;41326;45.302;-122.946;2024-03-06T00:37:55;100973.17;;;17.94;54.45
55460;BME280;41326;45.302;-122.946;2024-03-06T00:40:25;100973.04;;;17.93;54.46
55460;BME280;41326;45.302;-122.946;2024-03-06T00:42:55;100972.94;;;17.92;54.56
55460;BME280;41326;45.302;-122.946;2024-03-06T00:45:25;100972.87;;;18.04;54.06
55460;BME280;41326;45.302;-122.946;2024-03-06T00:47:55;100972.67;;;18.21;53.84
55460;BME280;41326;45.302;-122.946;2024-03-06T00:50:25;100966.23;;;18.40;53.47
55460;BME280;41326;45.302;-122.946;2024-03-06T00:52:55;100966.74;;;18.64;52.96
55460;BME280;41326;45.302;-122.946;2024-03-06T00:55:25;100967.90;;;18.79;52.36
55460;BME280;41326;45.302;-122.946;2024-03-06T00:57:55;100967.16;;;18.81;52.32
55460;BME280;41326;45.302;-122.946;2024-03-06T01:00:25;100968.95;;;18.82;52.19
55460;BME280;41326;45.302;-122.946;2024-03-06T01:02:55;100970.98;;;18.88;52.11
55460;BME280;41326;45.302;-122.946;2024-03-06T01:05:25;100972.58;;;19.04;51.79
55460;BME280;41326;45.302;-122.946;2024-03-06T01:07:55;100975.50;;;19.24;51.35
55460;BME280;41326;45.302;-122.946;2024-03-06T01:10:25;100981.89;;;19.53;50.66
55460;BME280;41326;45.302;-122.946;2024-03-06T01:12:56;100984.74;;;19.61;50.57
55460;BME280;41326;45.302;-122.946;2024-03-06T01:15:26;100986.64;;;19.55;50.63
55460;BME280;41326;45.302;-122.946;2024-03-06T01:17:56;100987.36;;;19.52;50.81
55460;BME280;41326;45.302;-122.946;2024-03-06T01:20:26;100987.71;;;19.39;51.15
55460;BME280;41326;45.302;-122.946;2024-03-06T01:22:56;100992.45;;;19.42;51.04
55460;BME280;41326;45.302;-122.946;2024-03-06T01:25:26;100989.41;;;19.49;50.95
55460;BME280;41326;45.302;-122.946;2024-03-06T01:27:56;100987.97;;;19.59;50.76
55460;BME280;41326;45.302;-122.946;2024-03-06T01:30:26;100986.28;;;19.67;50.44
55460;BME280;41326;45.302;-122.946;2024-03-06T01:32:56;100985.29;;;19.62;50.52
55460;BME280;41326;45.302;-122.946;2024-03-06T01:35:26;100986.53;;;19.56;50.72
55460;BME280;41326;45.302;-122.946;2024-03-06T01:37:56;100985.13;;;19.46;50.98
55460;BME280;41326;45.302;-122.946;2024-03-06T01:40:26;100985.63;;;19.36;51.30
55460;BME280;41326;45.302;-122.946;2024-03-06T01:42:56;100986.53;;;19.27;51.61
55460;BME280;41326;45.302;-122.946;2024-03-06T01:45:26;100990.17;;;19.23;51.69
55460;BME280;41326;45.302;-122.946;2024-03-06T01:47:56;100993.98;;;19.18;51.80
55460;BME280;41326;45.302;-122.946;2024-03-06T01:50:27;100998.39;;;19.13;52.04
55460;BME280;41326;45.302;-122.946;2024-03-06T01:52:57;101003.86;;;19.09;52.18
55460;BME280;41326;45.302;-122.946;2024-03-06T01:55:27;101005.67;;;19.11;52.16
55460;BME280;41326;45.302;-122.946;2024-03-06T01:57:57;101002.20;;;19.15;52.23
55460;BME280;41326;45.302;-122.946;2024-03-06T02:00:27;101000.33;;;19.29;52.04
55460;BME280;41326;45.302;-122.946;2024-03-06T02:02:57;100999.18;;;19.43;51.70
55460;BME280;41326;45.302;-122.946;2024-03-06T02:05:28;101003.85;;;19.47;51.42
55460;BME280;41326;45.302;-122.946;2024-03-06T02:07:58;100999.76;;;19.46;51.31
55460;BME280;41326;45.302;-122.946;2024-03-06T02:10:27;101001.03;;;19.40;51.61
55460;BME280;41326;45.302;-122.946;2024-03-06T02:12:58;100998.29;;;19.29;51.99
55460;BME280;41326;45.302;-122.946;2024-03-06T02:15:27;100997.45;;;19.24;52.20
55460;BME280;41326;45.302;-122.946;2024-03-06T02:17:58;100998.37;;;19.28;52.06
55460;BME280;41326;45.302;-122.946;2024-03-06T02:20:27;101000.16;;;19.37;51.99
55460;BME280;41326;45.302;-122.946;2024-03-06T02:22:57;100998.76;;;19.50;51.84
55460;BME280;41326;45.302;-122.946;2024-03-06T02:25:28;100998.15;;;19.58;51.96
55460;BME280;41326;45.302;-122.946;2024-03-06T02:27:58;101001.24;;;19.60;52.46
55460;BME280;41326;45.302;-122.946;2024-03-06T02:30:28;101003.49;;;19.57;53.30
55460;BME280;41326;45.302;-122.946;2024-03-06T02:32:58;101005.68;;;19.52;53.91
55460;BME280;41326;45.302;-122.946;2024-03-06T02:35:28;101007.08;;;19.44;54.42
55460;BME280;41326;45.302;-122.946;2024-03-06T02:37:59;101008.78;;;19.39;55.17
55460;BME280;41326;45.302;-122.946;2024-03-06T02:40:28;101007.81;;;19.36;55.39
55460;BME280;41326;45.302;-122.946;2024-03-06T02:42:59;101007.04;;;19.31;55.49
55460;BME280;41326;45.302;-122.946;2024-03-06T02:45:29;101007.19;;;19.32;55.26
55460;BME280;41326;45.302;-122.946;2024-03-06T02:47:59;101008.21;;;19.33;55.28
55460;BME280;41326;45.302;-122.946;2024-03-06T02:50:29;101008.16;;;19.34;55.72
55460;BME280;41326;45.302;-122.946;2024-03-06T02:52:59;101012.48;;;19.40;56.32
55460;BME280;41326;45.302;-122.946;2024-03-06T02:55:29;101016.03;;;19.45;56.26
55460;BME280;41326;45.302;-122.946;2024-03-06T02:58:02;101019.79;;;19.45;56.37
55460;BME280;41326;45.302;-122.946;2024-03-06T03:00:29;101020.91;;;19.43;56.39
55460;BME280;41326;45.302;-122.946;2024-03-06T03:02:59;101026.65;;;19.42;56.39
55460;BME280;41326;45.302;-122.946;2024-03-06T03:05:29;101030.80;;;19.42;55.85
55460;BME280;41326;45.302;-122.946;2024-03-06T03:07:59;101039.23;;;19.41;55.54
55460;BME280;41326;45.302;-122.946;2024-03-06T03:10:29;101043.38;;;19.37;56.02
55460;BME280;41326;45.302;-122.946;2024-03-06T03:13:00;101044.61;;;19.35;56.42
55460;BME280;41326;45.302;-122.946;2024-03-06T03:15:29;101046.12;;;19.30;56.64
55460;BME280;41326;45.302;-122.946;2024-03-06T03:18:00;101047.77;;;19.27;56.63
55460;BME280;41326;45.302;-122.946;2024-03-06T03:20:30;101047.53;;;19.23;56.78
55460;BME280;41326;45.302;-122.946;2024-03-06T03:23:00;101044.61;;;19.21;56.76
55460;BME280;41326;45.302;-122.946;2024-03-06T03:25:30;101047.80;;;19.22;56.49
55460;BME280;41326;45.302;-122.946;2024-03-06T03:28:00;101048.80;;;19.18;56.31
55460;BME280;41326;45.302;-122.946;2024-03-06T03:30:30;101045.66;;;19.18;56.39
55460;BME280;41326;45.302;-122.946;2024-03-06T03:33:00;101045.74;;;19.16;56.42
55460;BME280;41326;45.302;-122.946;2024-03-06T03:35:30;101047.82;;;19.15;56.13
55460;BME280;41326;45.302;-122.946;2024-03-06T03:38:00;101048.87;;;19.23;55.59
55460;BME280;41326;45.302;-122.946;2024-03-06T03:40:30;101049.78;;;19.33;55.14
55460;BME280;41326;45.302;-122.946;2024-03-06T03:43:00;101045.18;;;19.48;54.53
55460;BME280;41326;45.302;-122.946;2024-03-06T03:45:30;101044.96;;;19.50;54.21
55460;BME280;41326;45.302;-122.946;2024-03-06T03:48:01;101047.94;;;19.47;54.09
55460;BME280;41326;45.302;-122.946;2024-03-06T03:50:30;101054.87;;;19.41;54.40
55460;BME280;41326;45.302;-122.946;2024-03-06T03:53:01;101056.33;;;19.39;54.54
55460;BME280;41326;45.302;-122.946;2024-03-06T03:55:31;101058.02;;;19.35;54.60
55460;BME280;41326;45.302;-122.946;2024-03-06T03:58:01;101061.99;;;19.27;54.83
55460;BME280;41326;45.302;-122.946;2024-03-06T04:00:31;101061.00;;;19.18;55.04
55460;BME280;41326;45.302;-122.946;2024-03-06T04:03:01;101065.44;;;19.14;55.13
55460;BME280;41326;45.302;-122.946;2024-03-06T04:05:31;101067.35;;;19.18;54.60
55460;BME280;41326;45.302;-122.946;2024-03-06T04:08:01;101067.36;;;19.28;54.40
55460;BME280;41326;45.302;-122.946;2024-03-06T04:10:31;101069.17;;;19.45;53.86
55460;BME280;41326;45.302;-122.946;2024-03-06T04:13:02;101073.63;;;19.53;53.52
55460;BME280;41326;45.302;-122.946;2024-03-06T04:15:31;101073.90;;;19.51;53.45
55460;BME280;41326;45.302;-122.946;2024-03-06T04:18:01;101076.40;;;19.46;53.51
55460;BME280;41326;45.302;-122.946;2024-03-06T04:20:31;101075.58;;;19.40;53.68
55460;BME280;41326;45.302;-122.946;2024-03-06T04:23:02;101080.22;;;19.35;53.82
55460;BME280;41326;45.302;-122.946;2024-03-06T04:25:31;101079.08;;;19.41;53.36
55460;BME280;41326;45.302;-122.946;2024-03-06T04:28:02;101078.92;;;19.52;53.13
55460;BME280;41326;45.302;-122.946;2024-03-06T04:30:32;101075.72;;;19.64;52.75
55460;BME280;41326;45.302;-122.946;2024-03-06T04:33:02;101074.31;;;19.66;52.62
55460;BME280;41326;45.302;-122.946;2024-03-06T04:35:32;101077.61;;;19.64;52.58
55460;BME280;41326;45.302;-122.946;2024-03-06T04:38:02;101083.05;;;19.58;52.70
55460;BME280;41326;45.302;-122.946;2024-03-06T04:40:32;101083.98;;;19.50;52.90
55460;BME280;41326;45.302;-122.946;2024-03-06T04:43:02;101087.08;;;19.43;53.16
55460;BME280;41326;45.302;-122.946;2024-03-06T04:45:32;101087.78;;;19.45;53.01
55460;BME280;41326;45.302;-122.946;2024-03-06T04:48:02;101091.13;;;19.52;52.89
55460;BME280;41326;45.302;-122.946;2024-03-06T04:50:32;101096.17;;;19.59;52.74
55460;BME280;41326;45.302;-122.946;2024-03-06T04:53:03;101098.78;;;19.64;52.57
55460;BME280;41326;45.302;-122.946;2024-03-06T04:55:32;101100.14;;;19.61;52.56
55460;BME280;41326;45.302;-122.946;2024-03-06T04:58:02;101099.92;;;19.52;52.80
55460;BME280;41326;45.302;-122.946;2024-03-06T05:00:33;101099.85;;;19.42;53.05
55460;BME280;41326;45.302;-122.946;2024-03-06T05:03:03;101098.69;;;19.32;53.33
55460;BME280;41326;45.302;-122.946;2024-03-06T05:05:33;101099.33;;;19.26;53.39
55460;BME280;41326;45.302;-122.946;2024-03-06T05:08:03;101095.52;;;19.17;53.62
55460;BME280;41326;45.302;-122.946;2024-03-06T05:10:33;101093.89;;;19.12;53.92
55460;BME280;41326;45.302;-122.946;2024-03-06T05:13:04;101093.86;;;19.04;54.34
55460;BME280;41326;45.302;-122.946;2024-03-06T05:15:33;101094.39;;;18.97;54.55
55460;BME280;41326;45.302;-122.946;2024-03-06T05:18:04;101097.00;;;18.93;54.72
55460;BME280;41326;45.302;-122.946;2024-03-06T05:20:34;101094.68;;;18.88;54.85
55460;BME280;41326;45.302;-122.946;2024-03-06T05:23:04;101095.24;;;18.82;55.04
55460;BME280;41326;45.302;-122.946;2024-03-06T05:25:34;101097.12;;;18.77;55.04
55460;BME280;41326;45.302;-122.946;2024-03-06T05:28:05;101098.78;;;18.73;55.10
55460;BME280;41326;45.302;-122.946;2024-03-06T05:30:34;101100.59;;;18.69;55.20
55460;BME280;41326;45.302;-122.946;2024-03-06T05:33:04;101101.10;;;18.64;55.42
55460;BME280;41326;45.302;-122.946;2024-03-06T05:35:34;101099.25;;;18.56;55.65
55460;BME280;41326;45.302;-122.946;2024-03-06T05:38:04;101099.31;;;18.53;55.74
55460;BME280;41326;45.302;-122.946;2024-03-06T05:40:34;101099.95;;;18.49;55.83
55460;BME280;41326;45.302;-122.946;2024-03-06T05:43:04;101099.03;;;18.48;55.82
55460;BME280;41326;45.302;-122.946;2024-03-06T05:45:34;101102.71;;;18.44;55.77
55460;BME280;41326;45.302;-122.946;2024-03-06T05:48:05;101103.03;;;18.43;55.74
55460;BME280;41326;45.302;-122.946;2024-03-06T05:50:35;101108.54;;;18.42;55.83
55460;BME280;41326;45.302;-122.946;2024-03-06T05:53:05;101102.97;;;18.42;55.80
55460;BME280;41326;45.302;-122.946;2024-03-06T05:55:35;101108.03;;;18.40;55.86
55460;BME280;41326;45.302;-122.946;2024-03-06T05:58:05;101113.86;;;18.36;56.04
55460;BME280;41326;45.302;-122.946;2024-03-06T06:00:35;101111.50;;;18.29;56.22
55460;BME280;41326;45.302;-122.946;2024-03-06T06:03:05;101111.03;;;18.25;56.32
55460;BME280;41326;45.302;-122.946;2024-03-06T06:05:35;101116.01;;;18.23;56.13
55460;BME280;41326;45.302;-122.946;2024-03-06T06:08:05;101116.49;;;18.21;56.01
55460;BME280;41326;45.302;-122.946;2024-03-06T06:10:35;101116.36;;;18.15;56.19
55460;BME280;41326;45.302;-122.946;2024-03-06T06:13:06;101119.33;;;18.12;56.21
55460;BME280;41326;45.302;-122.946;2024-03-06T06:15:35;101124.58;;;18.10;56.20
55460;BME280;41326;45.302;-122.946;2024-03-06T06:18:06;101123.63;;;18.09;56.21
55460;BME280;41326;45.302;-122.946;2024-03-06T06:20:35;101124.71;;;18.07;56.22
55460;BME280;41326;45.302;-122.946;2024-03-06T06:23:06;101124.31;;;18.05;56.23
55460;BME280;41326;45.302;-122.946;2024-03-06T06:25:36;101124.75;;;18.05;56.00
55460;BME280;41326;45.302;-122.946;2024-03-06T06:28:06;101130.27;;;18.04;55.84
55460;BME280;41326;45.302;-122.946;2024-03-06T06:30:36;101125.55;;;18.01;55.94
55460;BME280;41326;45.302;-122.946;2024-03-06T06:33:06;101129.66;;;17.99;56.01
55460;BME280;41326;45.302;-122.946;2024-03-06T06:35:36;101128.39;;;17.95;56.06
55460;BME280;41326;45.302;-122.946;2024-03-06T06:38:06;101129.75;;;17.92;56.11
55460;BME280;41326;45.302;-122.946;2024-03-06T06:40:36;101127.74;;;17.92;56.08
55460;BME280;41326;45.302;-122.946;2024-03-06T06:43:07;101130.37;;;17.88;56.14
55460;BME280;41326;45.302;-122.946;2024-03-06T06:45:36;101130.14;;;17.88;55.92
55460;BME280;41326;45.302;-122.946;2024-03-06T06:48:07;101134.41;;;17.88;55.79
55460;BME280;41326;45.302;-122.946;2024-03-06T06:50:37;101134.32;;;17.88;55.79
55460;BME280;41326;45.302;-122.946;2024-03-06T06:53:07;101136.97;;;17.87;55.80
55460;BME280;41326;45.302;-122.946;2024-03-06T06:55:37;101139.82;;;17.85;55.82
55460;BME280;41326;45.302;-122.946;2024-03-06T06:58:07;101138.76;;;17.82;55.90
55460;BME280;41326;45.302;-122.946;2024-03-06T07:00:37;101136.06;;;17.79;55.97
55460;BME280;41326;45.302;-122.946;2024-03-06T07:03:07;101140.35;;;17.76;56.01
55460;BME280;41326;45.302;-122.946;2024-03-06T07:05:37;101142.16;;;17.77;55.79
55460;BME280;41326;45.302;-122.946;2024-03-06T07:08:07;101146.20;;;17.75;55.73
55460;BME280;41326;45.302;-122.946;2024-03-06T07:10:37;101147.26;;;17.71;55.86
55460;BME280;41326;45.302;-122.946;2024-03-06T07:13:08;101149.34;;;17.69;55.96
55460;BME280;41326;45.302;-122.946;2024-03-06T07:15:37;101154.25;;;17.67;56.03
55460;BME280;41326;45.302;-122.946;2024-03-06T07:18:07;101151.43;;;17.65;56.04
55460;BME280;41326;45.302;-122.946;2024-03-06T07:20:39;101155.42;;;17.61;56.14
55460;BME280;41326;45.302;-122.946;2024-03-06T07:23:08;101155.15;;;17.58;56.21
55460;BME280;41326;45.302;-122.946;2024-03-06T07:25:38;101152.78;;;17.55;56.18
55460;BME280;41326;45.302;-122.946;2024-03-06T07:28:08;101155.93;;;17.56;56.02
55460;BME280;41326;45.302;-122.946;2024-03-06T07:30:38;101157.13;;;17.54;56.09
55460;BME280;41326;45.302;-122.946;2024-03-06T07:33:08;101153.97;;;17.50;56.25
55460;BME280;41326;45.302;-122.946;2024-03-06T07:35:38;101152.49;;;17.47;56.33
55460;BME280;41326;45.302;-122.946;2024-03-06T07:38:08;101154.04;;;17.44;56.39
55460;BME280;41326;45.302;-122.946;2024-03-06T07:40:38;101152.33;;;17.44;56.39
55460;BME280;41326;45.302;-122.946;2024-03-06T07:43:08;101158.96;;;17.40;56.46
55460;BME280;41326;45.302;-122.946;2024-03-06T07:45:38;101161.10;;;17.38;56.35
55460;BME280;41326;45.302;-122.946;2024-03-06T07:48:08;101160.61;;;17.37;56.23
55460;BME280;41326;45.302;-122.946;2024-03-06T07:50:38;101165.22;;;17.38;56.25
55460;BME280;41326;45.302;-122.946;2024-03-06T07:53:09;101162.07;;;17.40;56.19
55460;BME280;41326;45.302;-122.946;2024-03-06T07:55:39;101165.61;;;17.41;56.20
55460;BME280;41326;45.302;-122.946;2024-03-06T07:58:09;101169.89;;;17.40;56.23
55460;BME280;41326;45.302;-122.946;2024-03-06T08:00:39;101172.41;;;17.35;56.35
55460;BME280;41326;45.302;-122.946;2024-03-06T08:03:09;101170.68;;;17.32;56.39
55460;BME280;41326;45.302;-122.946;2024-03-06T08:05:40;101174.80;;;17.32;56.25
55460;BME280;41326;45.302;-122.946;2024-03-06T08:08:10;101173.37;;;17.27;56.23
55460;BME280;41326;45.302;-122.946;2024-03-06T08:10:40;101178.16;;;17.24;56.41
55460;BME280;41326;45.302;-122.946;2024-03-06T08:13:10;101181.61;;;17.21;56.54
55460;BME280;41326;45.302;-122.946;2024-03-06T08:15:40;101181.95;;;17.16;56.71
55460;BME280;41326;45.302;-122.946;2024-03-06T08:18:10;101184.32;;;17.11;56.86
55460;BME280;41326;45.302;-122.946;2024-03-06T08:20:40;101182.01;;;17.10;56.95
55460;BME280;41326;45.302;-122.946;2024-03-06T08:23:10;101181.98;;;17.08;57.02
55460;BME280;41326;45.302;-122.946;2024-03-06T08:25:40;101184.18;;;17.06;56.97
55460;BME280;41326;45.302;-122.946;2024-03-06T08:28:10;101186.46;;;17.05;56.81
55460;BME280;41326;45.302;-122.946;2024-03-06T08:30:40;101184.33;;;17.01;56.95
55460;BME280;41326;45.302;-122.946;2024-03-06T08:33:11;101190.85;;;16.97;57.05
55460;BME280;41326;45.302;-122.946;2024-03-06T08:35:40;101191.60;;;16.93;57.17
55460;BME280;41326;45.302;-122.946;2024-03-06T08:38:11;101190.06;;;16.89;57.27
55460;BME280;41326;45.302;-122.946;2024-03-06T08:40:41;101192.48;;;16.87;57.27
55460;BME280;41326;45.302;-122.946;2024-03-06T08:43:11;101191.24;;;16.86;57.25
55460;BME280;41326;45.302;-122.946;2024-03-06T08:45:41;101195.09;;;16.83;57.14
55460;BME280;41326;45.302;-122.946;2024-03-06T08:48:11;101194.55;;;16.81;57.05
55460;BME280;41326;45.302;-122.946;2024-03-06T08:50:41;101198.76;;;16.82;57.07
55460;BME280;41326;45.302;-122.946;2024-03-06T08:53:12;101200.46;;;16.84;57.04
55460;BME280;41326;45.302;-122.946;2024-03-06T08:55:41;101206.64;;;16.81;57.11
55460;BME280;41326;45.302;-122.946;2024-03-06T08:58:12;101209.44;;;16.77;57.31
55460;BME280;41326;45.302;-122.946;2024-03-06T09:00:41;101212.76;;;16.73;57.43
55460;BME280;41326;45.302;-122.946;2024-03-06T09:03:12;101210.55;;;16.75;57.30
55460;BME280;41326;45.302;-122.946;2024-03-06T09:05:42;101217.61;;;16.74;57.12
55460;BME280;41326;45.302;-122.946;2024-03-06T09:08:12;101218.50;;;16.73;57.02
55460;BME280;41326;45.302;-122.946;2024-03-06T09:10:42;101218.21;;;16.69;57.12
55460;BME280;41326;45.302;-122.946;2024-03-06T09:13:12;101223.67;;;16.67;57.16
55460;BME280;41326;45.302;-122.946;2024-03-06T09:15:42;101221.82;;;16.64;57.20
55460;BME280;41326;45.302;-122.946;2024-03-06T09:18:12;101223.05;;;16.61;57.29
55460;BME280;41326;45.302;-122.946;2024-03-06T09:20:42;101221.26;;;16.60;57.28
55460;BME280;41326;45.302;-122.946;2024-03-06T09:23:12;101221.20;;;16.61;57.21
55460;BME280;41326;45.302;-122.946;2024-03-06T09:25:42;101222.13;;;16.61;57.02
55460;BME280;41326;45.302;-122.946;2024-03-06T09:28:13;101222.26;;;16.60;56.90
55460;BME280;41326;45.302;-122.946;2024-03-06T09:30:42;101219.13;;;16.56;56.97
55460;BME280;41326;45.302;-122.946;2024-03-06T09:33:13;101220.72;;;16.54;57.08
55460;BME280;41326;45.302;-122.946;2024-03-06T09:35:43;101218.43;;;16.48;57.27
55460;BME280;41326;45.302;-122.946;2024-03-06T09:38:13;101219.86;;;16.49;57.18
55460;BME280;41326;45.302;-122.946;2024-03-06T09:40:43;101219.63;;;16.45;57.26
55460;BME280;41326;45.302;-122.946;2024-03-06T09:43:13;101218.60;;;16.42;57.37
55460;BME280;41326;45.302;-122.946;2024-03-06T09:45:44;101221.62;;;16.42;57.25
55460;BME280;41326;45.302;-122.946;2024-03-06T09:48:13;101223.42;;;16.39;57.22
55460;BME280;41326;45.302;-122.946;2024-03-06T09:50:44;101223.12;;;16.37;57.25
55460;BME280;41326;45.302;-122.946;2024-03-06T09:53:15;101221.22;;;16.39;57.19
55460;BME280;41326;45.302;-122.946;2024-03-06T09:55:43;101222.71;;;16.37;57.25
55460;BME280;41326;45.302;-122.946;2024-03-06T09:58:13;101222.14;;;16.34;57.28
55460;BME280;41326;45.302;-122.946;2024-03-06T10:00:44;101218.70;;;16.32;57.32
55460;BME280;41326;45.302;-122.946;2024-03-06T10:03:14;101217.13;;;16.30;57.37
55460;BME280;41326;45.302;-122.946;2024-03-06T10:05:44;101214.38;;;16.28;57.30
55460;BME280;41326;45.302;-122.946;2024-03-06T10:08:14;101215.98;;;16.24;57.25
55460;BME280;41326;45.302;-122.946;2024-03-06T10:10:45;101212.95;;;16.22;57.34
55460;BME280;41326;45.302;-122.946;2024-03-06T10:13:17;101207.84;;;16.19;57.43
55460;BME280;41326;45.302;-122.946;2024-03-06T10:18:15;101204.85;;;16.14;57.58
55460;BME280;41326;45.302;-122.946;2024-03-06T10:20:45;101213.76;;;16.11;57.59
55460;BME280;41326;45.302;-122.946;2024-03-06T10:23:15;101211.40;;;16.11;57.54
55460;BME280;41326;45.302;-122.946;2024-03-06T10:25:45;101209.23;;;16.08;57.43
55460;BME280;41326;45.302;-122.946;2024-03-06T10:28:15;101206.56;;;16.07;57.32
55460;BME280;41326;45.302;-122.946;2024-03-06T10:30:45;101199.25;;;16.03;57.39
55460;BME280;41326;45.302;-122.946;2024-03-06T10:33:16;101200.27;;;16.02;57.40
55460;BME280;41326;45.302;-122.946;2024-03-06T10:35:47;101200.68;;;15.99;57.46
55460;BME280;41326;45.302;-122.946;2024-03-06T10:38:15;101199.43;;;15.98;57.49
55460;BME280;41326;45.302;-122.946;2024-03-06T10:40:45;101197.95;;;15.97;57.47
55460;BME280;41326;45.302;-122.946;2024-03-06T10:43:16;101197.93;;;15.94;57.50
55460;BME280;41326;45.302;-122.946;2024-03-06T10:45:48;101197.41;;;15.95;57.26
55460;BME280;41326;45.302;-122.946;2024-03-06T10:48:17;101194.27;;;15.92;57.22
55460;BME280;41326;45.302;-122.946;2024-03-06T10:50:48;101193.38;;;15.93;57.17
55460;BME280;41326;45.302;-122.946;2024-03-06T10:53:17;101195.29;;;15.95;57.09
55460;BME280;41326;45.302;-122.946;2024-03-06T10:55:46;101191.38;;;15.93;57.12
55460;BME280;41326;45.302;-122.946;2024-03-06T10:58:16;101189.07;;;15.91;57.11
55460;BME280;41326;45.302;-122.946;2024-03-06T11:00:47;101184.11;;;15.87;57.17
55460;BME280;41326;45.302;-122.946;2024-03-06T11:03:16;101182.11;;;15.84;57.19
55460;BME280;41326;45.302;-122.946;2024-03-06T11:05:46;101176.90;;;15.83;57.13
55460;BME280;41326;45.302;-122.946;2024-03-06T11:08:16;101178.34;;;15.82;57.03
55460;BME280;41326;45.302;-122.946;2024-03-06T11:10:46;101177.94;;;15.80;57.07
55460;BME280;41326;45.302;-122.946;2024-03-06T11:13:21;101181.95;;;15.76;57.14
55460;BME280;41326;45.302;-122.946;2024-03-06T11:15:47;101180.37;;;15.72;57.24
55460;BME280;41326;45.302;-122.946;2024-03-06T11:20:47;101178.43;;;15.71;57.22
55460;BME280;41326;45.302;-122.946;2024-03-06T11:23:17;101177.13;;;15.70;57.24
55460;BME280;41326;45.302;-122.946;2024-03-06T11:28:18;101177.86;;;15.68;57.05
55460;BME280;41326;45.302;-122.946;2024-03-06T11:30:54;101175.40;;;15.63;57.17
55460;BME280;41326;45.302;-122.946;2024-03-06T11:33:18;101172.81;;;15.59;57.29
55460;BME280;41326;45.302;-122.946;2024-03-06T11:38:19;101173.34;;;15.58;57.24
55460;BME280;41326;45.302;-122.946;2024-03-06T11:40:49;101174.13;;;15.55;57.31
55460;BME280;41326;45.302;-122.946;2024-03-06T11:43:22;101170.49;;;15.53;57.26
55460;BME280;41326;45.302;-122.946;2024-03-06T11:45:48;101172.10;;;15.53;57.16
55460;BME280;41326;45.302;-122.946;2024-03-06T11:48:19;101169.27;;;15.49;57.17
55460;BME280;41326;45.302;-122.946;2024-03-06T11:50:48;101167.12;;;15.49;57.19
55460;BME280;41326;45.302;-122.946;2024-03-06T11:53:19;101167.30;;;15.52;57.09
55460;BME280;41326;45.302;-122.946;2024-03-06T11:55:49;101167.66;;;15.52;57.02
55460;BME280;41326;45.302;-122.946;2024-03-06T11:58:19;101170.03;;;15.50;57.04
55460;BME280;41326;45.302;-122.946;2024-03-06T12:00:49;101173.30;;;15.48;57.07
55460;BME280;41326;45.302;-122.946;2024-03-06T12:03:19;101172.14;;;15.49;56.87
55460;BME280;41326;45.302;-122.946;2024-03-06T12:05:50;101175.04;;;15.59;56.61
55460;BME280;41326;45.302;-122.946;2024-03-06T12:08:19;101177.53;;;15.74;56.20
55460;BME280;41326;45.302;-122.946;2024-03-06T12:10:49;101174.70;;;15.92;55.50
55460;BME280;41326;45.302;-122.946;2024-03-06T12:13:20;101183.24;;;15.97;55.20
55460;BME280;41326;45.302;-122.946;2024-03-06T12:15:49;101183.78;;;15.96;55.17
55460;BME280;41326;45.302;-122.946;2024-03-06T12:18:19;101187.26;;;15.94;55.27
55460;BME280;41326;45.302;-122.946;2024-03-06T12:20:51;101191.30;;;15.87;55.49
55460;BME280;41326;45.302;-122.946;2024-03-06T12:23:22;101190.76;;;15.84;55.56
55460;BME280;41326;45.302;-122.946;2024-03-06T12:25:50;101189.19;;;15.78;55.64
55460;BME280;41326;45.302;-122.946;2024-03-06T12:28:24;101189.75;;;15.74;55.68
55460;BME280;41326;45.302;-122.946;2024-03-06T12:30:50;101190.27;;;15.70;55.80
55460;BME280;41326;45.302;-122.946;2024-03-06T12:33:20;101192.47;;;15.66;55.94
55460;BME280;41326;45.302;-122.946;2024-03-06T12:38:20;101193.27;;;15.56;56.16
55460;BME280;41326;45.302;-122.946;2024-03-06T12:40:50;101196.74;;;15.63;55.85
55460;BME280;41326;45.302;-122.946;2024-03-06T12:43:20;101198.78;;;15.76;55.52
55460;BME280;41326;45.302;-122.946;2024-03-06T12:45:51;101202.40;;;15.95;55.00